Terminal Aerodrome Forecast
Issued by NWS

Home | Current Version | Previous Version | Text Only | Print | Product List | Glossary On
Versions: 1 2 3 4 5 6 7 8 9 10 11 12 13 14 15
000
FTUS43 KSGF 151700
TAFJLN
TAF
KJLN 151720Z 1518/1618 VRB05KT P6SM SKC
     FM160800 17012KT P6SM SKC WS015/19040KT
     FM161500 19015G25KT P6SM SKC=

USA.gov is the U.S. government's official web portal to all federal, state and local government web resources and services.